Time;durP1;ratioP1;P1;durP2;ratioP2;P2;SDS_P1;SDS_P2;PMS_P1;PMS_P2;Temp;Humidity;BMP_temperature;BMP_pressure;BME280_temperature;BME280_humidity;BME280_pressure;Samples;Min_cycle;Max_cycle;Signal;HPM_P1;HPM_P2
2022/03/27 00:00:25;;;;;;;;;;;7.90;96.10;;;;;;5094900;28;19919;-48
2022/03/27 00:02:51;;;;;;;;;;;7.80;96.00;;;;;;5095098;28;19912;-46
2022/03/27 00:05:17;;;;;;;;;;;7.80;97.70;;;;;;5094371;28;20369;-48
2022/03/27 00:07:42;;;;;;;;;;;7.70;96.30;;;;;;5093948;28;19953;-46
2022/03/27 00:10:08;;;;;;;;;;;7.60;96.10;;;;;;5093806;28;19912;-48
2022/03/27 00:12:34;;;;;;;;;;;7.70;97.70;;;;;;5093737;28;19908;-50
2022/03/27 00:15:01;;;;;;;;;;;7.60;96.00;;;;;;5094157;28;19908;-49
2022/03/27 00:17:29;;;;;;;;;;;7.60;97.60;;;;;;5094303;28;19916;-48
2022/03/27 00:19:55;;;;;;;;;;;7.60;96.20;;;;;;5094918;28;19912;-46
2022/03/27 00:22:22;;;;;;;;;;;7.60;97.40;;;;;;5095853;28;20258;-47
2022/03/27 00:24:48;;;;;;;;;;;7.50;96.60;;;;;;5096124;28;19970;-46
2022/03/27 00:27:13;;;;;;;;;;;7.50;97.70;;;;;;5096140;28;19912;-44
2022/03/27 00:29:39;;;;;;;;;;;7.50;97.40;;;;;;5095885;28;20304;-45
2022/03/27 00:32:04;;;;;;;;;;;7.50;97.60;;;;;;5095856;28;19942;-48
2022/03/27 00:34:30;;;;;;;;;;;7.50;99.00;;;;;;5095617;28;19958;-47
2022/03/27 00:36:55;;;;;;;;;;;7.40;99.30;;;;;;5095860;28;19923;-46
2022/03/27 00:39:21;;;;;;;;;;;7.40;98.70;;;;;;5095457;28;19999;-46
2022/03/27 00:41:47;;;;;;;;;;;7.20;96.60;;;;;;5095581;28;20370;-46
2022/03/27 00:44:13;;;;;;;;;;;7.30;99.40;;;;;;5095662;28;19915;-46
2022/03/27 00:46:38;;;;;;;;;;;7.30;99.10;;;;;;5094368;28;19908;-47
2022/03/27 00:49:04;;;;;;;;;;;7.30;96.80;;;;;;5096076;28;19920;-46
2022/03/27 00:51:29;;;;;;;;;;;7.40;97.60;;;;;;5095348;28;19927;-47
2022/03/27 00:53:55;;;;;;;;;;;7.40;98.60;;;;;;5095306;28;20406;-45
2022/03/27 00:56:21;;;;;;;;;;;7.40;98.40;;;;;;5095202;28;19918;-45
2022/03/27 00:58:46;;;;;;;;;;;7.40;97.00;;;;;;5095298;28;19935;-45
2022/03/27 01:01:25;;;;;;;;;;;7.30;96.30;;;;;;5095615;28;20301;-46
2022/03/27 01:03:54;;;;;;;;;;;7.30;96.30;;;;;;5095040;28;19944;-50
2022/03/27 01:06:30;;;;;;;;;;;7.30;98.20;;;;;;5095091;28;19909;-46
2022/03/27 01:11:40;;;;;;;;;;;7.20;99.90;;;;;;5095279;28;19914;-48
2022/03/27 01:14:05;;;;;;;;;;;7.10;99.90;;;;;;5094069;28;19911;-45
2022/03/27 01:16:37;;;;;;;;;;;7.10;99.90;;;;;;5095229;28;19912;-44
2022/03/27 01:19:03;;;;;;;;;;;7.00;99.90;;;;;;5095654;28;19995;-44
2022/03/27 01:21:29;;;;;;;;;;;7.00;99.90;;;;;;5094882;28;20282;-49
2022/03/27 01:23:55;;;;;;;;;;;7.00;99.90;;;;;;5094835;28;19909;-49
2022/03/27 01:26:22;;;;;;;;;;;7.00;99.90;;;;;;5095069;28;19909;-47
2022/03/27 01:28:47;;;;;;;;;;;7.00;99.90;;;;;;5095001;28;19915;-50
2022/03/27 01:31:13;;;;;;;;;;;6.90;99.90;;;;;;5094296;28;19920;-48
2022/03/27 01:33:38;;;;;;;;;;;6.80;99.90;;;;;;5094537;28;19915;-47
2022/03/27 01:36:04;;;;;;;;;;;6.80;99.90;;;;;;5094444;28;20303;-47
2022/03/27 01:38:30;;;;;;;;;;;6.80;99.90;;;;;;5093565;28;20101;-46
2022/03/27 01:40:55;;;;;;;;;;;6.80;99.90;;;;;;5094471;28;19919;-48
2022/03/27 01:43:21;;;;;;;;;;;6.60;99.90;;;;;;5094603;28;19912;-44
2022/03/27 01:45:46;;;;;;;;;;;6.70;99.90;;;;;;5094258;28;19973;-44
2022/03/27 01:48:12;;;;;;;;;;;6.70;99.90;;;;;;5093430;28;19908;-45
2022/03/27 01:50:37;;;;;;;;;;;6.70;99.90;;;;;;5094602;28;20023;-44
2022/03/27 01:53:03;;;;;;;;;;;6.70;99.90;;;;;;5093480;28;19908;-47
2022/03/27 01:55:28;;;;;;;;;;;6.70;99.90;;;;;;5094649;28;19914;-46
2022/03/27 01:57:54;;;;;;;;;;;6.70;99.90;;;;;;5094525;28;19923;-45
2022/03/27 02:00:19;;;;;;;;;;;6.70;99.90;;;;;;5094314;28;19908;-46
2022/03/27 02:02:45;;;;;;;;;;;6.60;99.90;;;;;;5094690;28;20362;-44
2022/03/27 02:05:11;;;;;;;;;;;6.60;99.90;;;;;;5094542;28;20335;-44
2022/03/27 02:07:44;;;;;;;;;;;6.60;99.90;;;;;;5094304;28;19925;-47
2022/03/27 02:10:09;;;;;;;;;;;6.60;99.90;;;;;;5094011;28;19915;-46
2022/03/27 02:12:35;;;;;;;;;;;6.50;99.90;;;;;;5093936;28;20258;-47
2022/03/27 02:15:03;;;;;;;;;;;6.60;99.90;;;;;;5093953;28;19909;-48
2022/03/27 02:17:29;;;;;;;;;;;6.50;99.90;;;;;;5094272;28;19988;-48
2022/03/27 02:19:54;;;;;;;;;;;6.50;99.90;;;;;;5093961;28;19912;-44
2022/03/27 02:22:20;;;;;;;;;;;6.60;99.90;;;;;;5093943;28;20049;-47
2022/03/27 02:24:45;;;;;;;;;;;6.50;99.90;;;;;;5094202;28;19912;-45
2022/03/27 02:27:11;;;;;;;;;;;6.50;99.90;;;;;;5093848;28;19908;-51
2022/03/27 02:29:36;;;;;;;;;;;6.40;99.90;;;;;;5093751;28;19909;-44
2022/03/27 02:32:02;;;;;;;;;;;6.30;99.90;;;;;;5092729;28;20002;-49
2022/03/27 02:34:28;;;;;;;;;;;6.30;99.90;;;;;;5093882;28;20382;-45
2022/03/27 02:36:53;;;;;;;;;;;6.30;99.90;;;;;;5093699;28;20010;-49
2022/03/27 02:39:20;;;;;;;;;;;6.30;99.90;;;;;;5094084;28;19918;-48
2022/03/27 02:41:45;;;;;;;;;;;6.20;99.90;;;;;;5093987;28;19970;-47
2022/03/27 02:44:12;;;;;;;;;;;6.20;99.90;;;;;;5092357;28;19908;-47
2022/03/27 02:46:38;;;;;;;;;;;6.20;99.90;;;;;;5093244;28;19934;-50
2022/03/27 02:49:03;;;;;;;;;;;6.10;99.90;;;;;;5094046;28;19908;-47
2022/03/27 02:51:29;;;;;;;;;;;6.00;99.90;;;;;;5093659;28;20008;-44
2022/03/27 02:53:54;;;;;;;;;;;6.00;99.90;;;;;;5093481;28;19908;-47
2022/03/27 02:56:20;;;;;;;;;;;6.00;99.90;;;;;;5093790;28;20003;-47
2022/03/27 02:58:46;;;;;;;;;;;6.00;99.90;;;;;;5093802;28;20398;-48
2022/03/27 03:01:11;;;;;;;;;;;5.90;99.90;;;;;;5093996;28;20351;-47
2022/03/27 03:03:37;;;;;;;;;;;5.90;99.90;;;;;;5093854;28;19947;-45
2022/03/27 03:06:05;;;;;;;;;;;5.80;99.90;;;;;;5093567;28;19915;-47
2022/03/27 03:08:31;;;;;;;;;;;5.80;99.90;;;;;;5093400;28;20286;-46
2022/03/27 03:10:57;;;;;;;;;;;5.80;99.90;;;;;;5093722;28;20342;-46
2022/03/27 03:13:22;;;;;;;;;;;5.80;99.90;;;;;;5093626;28;19962;-46
2022/03/27 03:15:49;;;;;;;;;;;5.80;99.90;;;;;;5093376;28;19995;-49
2022/03/27 03:18:15;;;;;;;;;;;5.70;99.90;;;;;;5093739;28;19935;-48
2022/03/27 03:20:41;;;;;;;;;;;5.70;99.90;;;;;;5094726;28;19908;-44
2022/03/27 03:23:06;;;;;;;;;;;5.70;99.90;;;;;;5097726;28;19998;-47
2022/03/27 03:25:32;;;;;;;;;;;5.60;99.90;;;;;;5097225;28;19908;-46
2022/03/27 03:27:57;;;;;;;;;;;5.50;99.90;;;;;;5097359;28;19908;-46
2022/03/27 03:30:23;;;;;;;;;;;5.40;99.90;;;;;;5096999;28;19959;-44
2022/03/27 03:32:49;;;;;;;;;;;5.40;99.90;;;;;;5097319;28;19915;-46
2022/03/27 03:35:15;;;;;;;;;;;5.30;99.90;;;;;;5097442;28;19919;-46
2022/03/27 03:37:41;;;;;;;;;;;5.40;99.90;;;;;;5096786;28;19912;-46
2022/03/27 03:40:07;;;;;;;;;;;5.30;99.90;;;;;;5096054;28;19920;-46
2022/03/27 03:42:36;;;;;;;;;;;5.30;99.90;;;;;;5096873;28;19915;-47
2022/03/27 03:45:02;;;;;;;;;;;5.30;99.90;;;;;;5096768;28;19916;-46
2022/03/27 03:47:28;;;;;;;;;;;5.30;99.90;;;;;;5096862;28;19914;-49
2022/03/27 03:49:53;;;;;;;;;;;5.20;99.90;;;;;;5096764;28;19908;-47
2022/03/27 03:52:19;;;;;;;;;;;5.30;99.90;;;;;;5096981;28;19915;-44
2022/03/27 03:54:44;;;;;;;;;;;5.30;99.90;;;;;;5096899;28;19909;-45
2022/03/27 03:57:10;;;;;;;;;;;5.30;99.90;;;;;;5096475;28;20286;-45
2022/03/27 03:59:36;;;;;;;;;;;5.20;99.90;;;;;;5096922;28;19955;-45
2022/03/27 04:02:03;;;;;;;;;;;5.10;99.90;;;;;;5096741;28;19995;-45
2022/03/27 04:04:30;;;;;;;;;;;5.00;99.90;;;;;;5095347;28;19934;-44
2022/03/27 04:06:56;;;;;;;;;;;5.00;99.90;;;;;;5096681;28;19963;-46
2022/03/27 04:09:21;;;;;;;;;;;5.00;99.90;;;;;;5095308;28;20426;-44
2022/03/27 04:11:47;;;;;;;;;;;4.90;99.90;;;;;;5096281;28;19989;-46
2022/03/27 04:14:13;;;;;;;;;;;4.90;99.90;;;;;;5096263;28;19908;-48
2022/03/27 04:16:38;;;;;;;;;;;4.80;99.90;;;;;;5096494;28;20070;-46
2022/03/27 04:19:05;;;;;;;;;;;4.80;99.90;;;;;;5096469;28;20432;-45
2022/03/27 04:21:31;;;;;;;;;;;4.80;99.90;;;;;;5096308;28;19955;-45
2022/03/27 04:23:56;;;;;;;;;;;4.90;99.90;;;;;;5096092;28;19955;-48
2022/03/27 04:26:22;;;;;;;;;;;4.90;99.90;;;;;;5096346;28;19915;-46
2022/03/27 04:28:47;;;;;;;;;;;4.90;99.90;;;;;;5096267;28;19908;-44
2022/03/27 04:31:13;;;;;;;;;;;4.90;99.90;;;;;;5095877;28;20350;-44
2022/03/27 04:33:39;;;;;;;;;;;4.80;99.90;;;;;;5095851;28;19908;-47
2022/03/27 04:36:04;;;;;;;;;;;4.80;99.90;;;;;;5096238;28;20006;-44
2022/03/27 04:38:30;;;;;;;;;;;4.80;99.90;;;;;;5096312;28;19951;-49
2022/03/27 04:40:55;;;;;;;;;;;4.70;99.90;;;;;;5095763;28;20323;-47
2022/03/27 04:43:22;;;;;;;;;;;4.60;99.90;;;;;;5096373;28;20002;-46
2022/03/27 04:45:48;;;;;;;;;;;4.60;99.90;;;;;;5094559;28;19955;-47
2022/03/27 04:48:14;;;;;;;;;;;4.60;99.90;;;;;;5095856;28;19908;-48
2022/03/27 04:50:39;;;;;;;;;;;4.60;99.90;;;;;;5096225;28;19909;-46
2022/03/27 04:53:05;;;;;;;;;;;4.60;99.90;;;;;;5095757;28;20291;-44
2022/03/27 04:55:30;;;;;;;;;;;4.70;99.90;;;;;;5095691;28;19931;-45
2022/03/27 04:57:56;;;;;;;;;;;4.60;99.90;;;;;;5095419;28;19915;-48
2022/03/27 05:00:22;;;;;;;;;;;4.70;99.90;;;;;;5094434;28;19919;-45
2022/03/27 05:02:48;;;;;;;;;;;4.70;99.90;;;;;;5095919;28;20316;-47
2022/03/27 05:05:15;;;;;;;;;;;4.80;99.90;;;;;;5095186;28;19934;-44
2022/03/27 05:07:41;;;;;;;;;;;4.70;99.90;;;;;;5095291;28;19908;-47
2022/03/27 05:10:07;;;;;;;;;;;4.70;99.90;;;;;;5095625;28;20274;-48
2022/03/27 05:12:33;;;;;;;;;;;4.60;99.90;;;;;;5095239;28;19961;-47
2022/03/27 05:14:58;;;;;;;;;;;4.70;99.90;;;;;;5095057;28;20335;-47
2022/03/27 05:17:24;;;;;;;;;;;4.80;99.90;;;;;;5095205;28;19916;-48
2022/03/27 05:19:49;;;;;;;;;;;4.80;99.90;;;;;;5095573;28;19966;-47
2022/03/27 05:22:15;;;;;;;;;;;4.90;99.90;;;;;;5094955;28;19960;-45
2022/03/27 05:24:40;;;;;;;;;;;4.90;99.90;;;;;;5095054;28;19984;-46
2022/03/27 05:27:06;;;;;;;;;;;5.00;99.90;;;;;;5095343;28;19908;-50
2022/03/27 05:29:31;;;;;;;;;;;5.10;99.90;;;;;;5095165;28;19955;-46
2022/03/27 05:31:58;;;;;;;;;;;5.00;99.90;;;;;;5094446;28;19924;-47
2022/03/27 05:34:24;;;;;;;;;;;4.90;99.90;;;;;;5094996;28;19961;-48
2022/03/27 05:36:49;;;;;;;;;;;5.00;99.90;;;;;;5094996;28;19912;-49
2022/03/27 05:39:17;;;;;;;;;;;5.00;99.90;;;;;;5094256;28;20325;-46
2022/03/27 05:41:43;;;;;;;;;;;5.00;99.90;;;;;;5094860;28;19912;-47
2022/03/27 05:44:08;;;;;;;;;;;5.00;99.90;;;;;;5093909;28;19915;-47
2022/03/27 05:46:34;;;;;;;;;;;5.10;99.90;;;;;;5094377;28;20270;-47
2022/03/27 05:49:00;;;;;;;;;;;5.10;99.90;;;;;;5094699;28;19952;-46
2022/03/27 05:51:25;;;;;;;;;;;5.20;99.90;;;;;;5094295;28;20372;-44
2022/03/27 05:53:51;;;;;;;;;;;5.30;99.90;;;;;;5094672;28;19908;-47
2022/03/27 05:56:17;;;;;;;;;;;5.40;99.90;;;;;;5094696;28;20019;-45
2022/03/27 05:58:42;;;;;;;;;;;5.30;99.90;;;;;;5094398;28;19935;-46
2022/03/27 06:01:08;;;;;;;;;;;5.40;99.90;;;;;;5093277;28;20046;-45
2022/03/27 06:03:34;;;;;;;;;;;5.40;99.90;;;;;;5094233;28;19916;-44
2022/03/27 06:05:59;;;;;;;;;;;5.60;99.90;;;;;;5094072;28;19915;-44
2022/03/27 06:08:25;;;;;;;;;;;5.70;99.90;;;;;;5094395;28;19908;-45
2022/03/27 06:10:50;;;;;;;;;;;5.70;99.90;;;;;;5092727;28;19908;-46
2022/03/27 06:13:17;;;;;;;;;;;5.80;99.90;;;;;;5092644;28;20007;-45
2022/03/27 06:15:42;;;;;;;;;;;5.90;99.90;;;;;;5112859;28;19915;-45
2022/03/27 06:18:11;;;;;;;;;;;6.10;99.90;;;;;;5098527;28;19916;-46
2022/03/27 06:20:37;;;;;;;;;;;6.10;99.90;;;;;;5092934;28;19908;-47
2022/03/27 06:23:03;;;;;;;;;;;6.30;99.90;;;;;;5094103;28;19961;-50
2022/03/27 06:25:29;;;;;;;;;;;6.40;99.90;;;;;;5094419;28;19912;-47
2022/03/27 06:27:55;;;;;;;;;;;6.50;99.90;;;;;;5094228;28;19920;-45
2022/03/27 06:30:22;;;;;;;;;;;6.60;99.90;;;;;;5092301;28;20029;-45
2022/03/27 06:32:48;;;;;;;;;;;6.80;99.90;;;;;;5093668;28;19912;-49
2022/03/27 06:35:15;;;;;;;;;;;7.00;99.90;;;;;;5093205;28;19915;-49
2022/03/27 06:37:40;;;;;;;;;;;7.10;99.90;;;;;;5094441;28;19922;-50
2022/03/27 06:40:07;;;;;;;;;;;7.10;99.90;;;;;;5113957;28;19912;-48
2022/03/27 06:42:32;;;;;;;;;;;7.20;99.90;;;;;;5102036;28;19909;-45
2022/03/27 06:44:58;;;;;;;;;;;7.40;99.90;;;;;;5093920;28;19909;-45
2022/03/27 06:47:24;;;;;;;;;;;7.50;99.30;;;;;;5092500;28;20347;-47
2022/03/27 06:49:50;;;;;;;;;;;7.50;99.80;;;;;;5093843;28;19908;-47
2022/03/27 06:52:16;;;;;;;;;;;7.70;99.90;;;;;;5092445;28;19912;-46
2022/03/27 06:54:42;;;;;;;;;;;7.80;99.90;;;;;;5106000;28;19915;-45
2022/03/27 06:57:08;;;;;;;;;;;8.00;99.90;;;;;;5099080;28;19931;-46
2022/03/27 07:05:02;;;;;;;;;;;8.50;99.20;;;;;;5097197;28;19916;-44
2022/03/27 07:07:28;;;;;;;;;;;8.70;98.80;;;;;;5097601;28;19908;-44
2022/03/27 07:09:54;;;;;;;;;;;8.80;98.70;;;;;;5097471;28;19908;-47
2022/03/27 07:12:19;;;;;;;;;;;8.90;98.30;;;;;;5092702;28;20072;-47
2022/03/27 07:14:46;;;;;;;;;;;9.00;98.30;;;;;;5113887;28;20368;-48
2022/03/27 07:17:15;;;;;;;;;;;9.10;97.80;;;;;;5115000;28;19956;-46
2022/03/27 07:19:41;;;;;;;;;;;9.30;97.10;;;;;;5095997;28;20358;-49
2022/03/27 07:22:07;;;;;;;;;;;9.20;96.10;;;;;;5097580;28;19915;-44
2022/03/27 07:24:32;;;;;;;;;;;9.30;98.20;;;;;;5096542;28;20023;-46
2022/03/27 07:26:58;;;;;;;;;;;9.40;95.90;;;;;;5097077;28;19908;-47
2022/03/27 07:29:23;;;;;;;;;;;9.50;97.10;;;;;;5098774;28;19930;-45
2022/03/27 07:31:49;;;;;;;;;;;9.80;96.80;;;;;;5116656;28;19924;-48
2022/03/27 07:34:16;;;;;;;;;;;9.80;95.20;;;;;;5085017;28;19955;-46
2022/03/27 07:36:42;;;;;;;;;;;10.00;96.70;;;;;;5117134;28;20010;-46
2022/03/27 07:39:09;;;;;;;;;;;10.10;95.30;;;;;;5106652;28;19947;-46
2022/03/27 07:41:35;;;;;;;;;;;10.20;95.00;;;;;;5095720;28;19908;-45
2022/03/27 07:44:00;;;;;;;;;;;10.20;94.80;;;;;;5096533;28;20270;-45
2022/03/27 07:46:26;;;;;;;;;;;10.40;94.20;;;;;;5096387;28;19915;-48
2022/03/27 07:48:52;;;;;;;;;;;10.50;94.30;;;;;;5106884;28;19908;-49
2022/03/27 07:51:17;;;;;;;;;;;10.60;93.90;;;;;;5095386;28;20410;-47
2022/03/27 07:53:43;;;;;;;;;;;10.70;93.60;;;;;;5096391;28;19908;-47
2022/03/27 07:56:08;;;;;;;;;;;10.80;93.70;;;;;;5096481;28;20370;-47
2022/03/27 07:58:34;;;;;;;;;;;11.00;93.20;;;;;;5097913;28;19912;-45
2022/03/27 08:01:00;;;;;;;;;;;11.10;92.80;;;;;;5116744;28;20300;-47
2022/03/27 08:03:26;;;;;;;;;;;11.00;93.10;;;;;;5116396;28;20366;-46
2022/03/27 08:05:51;;;;;;;;;;;11.40;93.40;;;;;;5106757;28;20016;-46
2022/03/27 08:08:17;;;;;;;;;;;11.40;92.60;;;;;;5094742;28;20342;-46
2022/03/27 08:10:43;;;;;;;;;;;11.60;94.30;;;;;;5107241;28;19908;-45
2022/03/27 08:13:09;;;;;;;;;;;11.80;92.90;;;;;;5116403;28;19914;-45
2022/03/27 08:15:34;;;;;;;;;;;11.90;93.00;;;;;;5101756;28;19995;-46
2022/03/27 08:18:00;;;;;;;;;;;12.00;92.70;;;;;;5107168;28;19942;-45
2022/03/27 08:20:26;;;;;;;;;;;12.20;94.40;;;;;;5111520;28;20276;-48
2022/03/27 08:22:52;;;;;;;;;;;12.30;92.80;;;;;;5092553;28;19912;-46
2022/03/27 08:28:02;;;;;;;;;;;12.40;91.60;;;;;;5092101;28;20015;-48
2022/03/27 08:30:28;;;;;;;;;;;12.40;91.80;;;;;;5089446;28;20420;-46
2022/03/27 08:32:53;;;;;;;;;;;12.50;91.40;;;;;;5121354;27;19915;-46
2022/03/27 08:35:19;;;;;;;;;;;12.70;90.70;;;;;;5093929;28;20057;-49
2022/03/27 08:37:44;;;;;;;;;;;12.70;91.50;;;;;;5101441;28;19955;-46
2022/03/27 08:40:10;;;;;;;;;;;12.70;91.30;;;;;;5115941;28;19912;-44
2022/03/27 08:42:36;;;;;;;;;;;12.70;91.40;;;;;;5100085;28;19916;-44
2022/03/27 08:45:01;;;;;;;;;;;12.60;90.60;;;;;;5093403;28;20286;-46
2022/03/27 08:47:28;;;;;;;;;;;12.70;90.80;;;;;;5094885;28;20000;-47
2022/03/27 08:49:56;;;;;;;;;;;12.60;90.80;;;;;;5111352;28;20350;-45
2022/03/27 08:52:39;;;;;;;;;;;12.80;91.50;;;;;;5113106;28;19915;-47
2022/03/27 08:55:06;;;;;;;;;;;13.10;90.60;;;;;;5095581;28;20238;-48
2022/03/27 08:57:44;;;;;;;;;;;13.00;90.10;;;;;;5095390;28;19912;-48
2022/03/27 09:00:10;;;;;;;;;;;13.00;90.10;;;;;;5094968;28;19951;-46
2022/03/27 09:02:36;;;;;;;;;;;13.20;91.10;;;;;;5095282;28;19912;-48
2022/03/27 09:05:03;;;;;;;;;;;13.30;89.70;;;;;;5096304;28;19912;-49
2022/03/27 09:07:29;;;;;;;;;;;13.20;89.40;;;;;;5106767;28;20325;-49
2022/03/27 09:09:55;;;;;;;;;;;13.30;90.30;;;;;;5083459;28;19937;-47
2022/03/27 09:12:21;;;;;;;;;;;13.40;89.20;;;;;;5090288;28;20345;-44
2022/03/27 09:14:48;;;;;;;;;;;13.60;88.80;;;;;;5090967;28;19935;-45
2022/03/27 09:17:14;;;;;;;;;;;13.80;88.20;;;;;;5096623;28;19916;-48
2022/03/27 09:19:47;;;;;;;;;;;13.70;87.90;;;;;;5076697;28;19921;-47
2022/03/27 09:22:17;;;;;;;;;;;13.80;88.60;;;;;;5087651;28;19912;-48
2022/03/27 09:24:46;;;;;;;;;;;14.30;88.60;;;;;;5094833;28;19908;-48
2022/03/27 09:27:12;;;;;;;;;;;14.10;85.90;;;;;;5086470;28;20346;-47
2022/03/27 09:29:57;;;;;;;;;;;14.20;85.10;;;;;;5096539;28;19912;-45
2022/03/27 09:32:27;;;;;;;;;;;14.40;85.60;;;;;;5097460;28;19912;-47
2022/03/27 09:35:00;;;;;;;;;;;14.70;85.00;;;;;;5097119;28;19921;-46
2022/03/27 09:37:29;;;;;;;;;;;14.40;83.80;;;;;;5092955;28;19962;-49
2022/03/27 09:39:56;;;;;;;;;;;14.30;84.40;;;;;;5088861;28;19919;-49
2022/03/27 09:42:22;;;;;;;;;;;14.20;83.60;;;;;;5105196;28;19916;-47
2022/03/27 09:44:47;;;;;;;;;;;14.20;83.70;;;;;;5093899;28;20007;-49
2022/03/27 09:47:13;;;;;;;;;;;14.40;83.50;;;;;;5094089;28;19912;-51
2022/03/27 09:49:46;;;;;;;;;;;14.70;82.10;;;;;;5094753;28;19913;-48
2022/03/27 09:52:19;;;;;;;;;;;14.70;81.80;;;;;;5098190;28;20402;-47
2022/03/27 09:54:50;;;;;;;;;;;14.40;82.10;;;;;;5094011;28;19916;-46
2022/03/27 09:57:22;;;;;;;;;;;14.80;81.50;;;;;;5109070;28;20008;-46
2022/03/27 09:59:48;;;;;;;;;;;15.00;81.50;;;;;;5112602;28;20012;-48
2022/03/27 10:02:24;;;;;;;;;;;15.20;80.10;;;;;;5111077;28;20006;-51
2022/03/27 10:04:57;;;;;;;;;;;15.30;80.40;;;;;;5102689;28;20335;-49
2022/03/27 10:07:25;;;;;;;;;;;15.50;79.90;;;;;;5113954;28;19908;-49
2022/03/27 10:09:52;;;;;;;;;;;15.30;79.60;;;;;;5099517;28;19926;-50
2022/03/27 10:12:18;;;;;;;;;;;15.50;79.00;;;;;;5093334;28;19916;-49
2022/03/27 10:14:44;;;;;;;;;;;15.50;78.60;;;;;;5101943;28;19919;-46
2022/03/27 10:17:10;;;;;;;;;;;15.60;78.30;;;;;;5096735;28;20012;-49
2022/03/27 10:19:44;;;;;;;;;;;15.50;78.90;;;;;;5094426;28;19924;-47
2022/03/27 10:22:11;;;;;;;;;;;15.80;78.10;;;;;;5111595;28;19977;-47
2022/03/27 10:24:39;;;;;;;;;;;16.10;78.20;;;;;;5104423;28;19911;-47
2022/03/27 10:27:04;;;;;;;;;;;15.60;79.30;;;;;;5093204;28;19908;-50
2022/03/27 10:29:30;;;;;;;;;;;15.80;80.40;;;;;;5101462;28;19977;-45
2022/03/27 10:31:57;;;;;;;;;;;16.10;79.90;;;;;;5105227;28;19927;-48
2022/03/27 10:34:23;;;;;;;;;;;15.70;79.90;;;;;;5092259;28;20315;-47
2022/03/27 10:36:58;;;;;;;;;;;15.90;80.40;;;;;;5096794;28;20014;-48
2022/03/27 10:39:25;;;;;;;;;;;16.10;79.40;;;;;;5107449;28;19966;-48
2022/03/27 10:41:55;;;;;;;;;;;15.90;79.50;;;;;;5105339;28;19957;-46
2022/03/27 10:44:21;;;;;;;;;;;16.00;79.40;;;;;;5094590;28;19912;-48
2022/03/27 10:47:05;;;;;;;;;;;15.90;78.90;;;;;;5093782;28;20336;-49
2022/03/27 10:49:31;;;;;;;;;;;16.30;78.80;;;;;;5093074;28;19919;-48
2022/03/27 10:52:03;;;;;;;;;;;16.30;79.00;;;;;;5098080;28;19912;-48
2022/03/27 10:54:29;;;;;;;;;;;16.50;77.90;;;;;;5099154;28;19911;-45
2022/03/27 10:56:55;;;;;;;;;;;15.90;78.50;;;;;;5092477;28;19969;-47
2022/03/27 10:59:21;;;;;;;;;;;16.40;78.40;;;;;;5092853;28;20347;-49
2022/03/27 11:01:47;;;;;;;;;;;16.70;77.10;;;;;;5106354;28;20315;-48
2022/03/27 11:04:16;;;;;;;;;;;16.10;77.40;;;;;;5092873;28;19916;-49
2022/03/27 11:06:46;;;;;;;;;;;16.20;77.10;;;;;;5098891;28;19912;-46
2022/03/27 11:09:30;;;;;;;;;;;16.40;77.00;;;;;;5111552;28;20317;-47
2022/03/27 11:11:57;;;;;;;;;;;16.80;75.10;;;;;;5093246;28;19938;-48
2022/03/27 11:14:42;;;;;;;;;;;16.70;73.90;;;;;;5092707;28;19919;-46
2022/03/27 11:17:12;;;;;;;;;;;16.80;72.60;;;;;;5093221;28;19912;-46
2022/03/27 11:19:42;;;;;;;;;;;17.30;69.80;;;;;;5110418;28;19916;-48
2022/03/27 11:22:27;;;;;;;;;;;17.60;68.70;;;;;;5072106;28;19934;-48
2022/03/27 11:25:12;;;;;;;;;;;17.60;67.30;;;;;;5092763;28;20359;-47
2022/03/27 11:27:55;;;;;;;;;;;17.50;67.70;;;;;;5072069;28;19909;-47
2022/03/27 11:30:20;;;;;;;;;;;17.70;66.40;;;;;;5075172;28;19928;-49
2022/03/27 11:33:04;;;;;;;;;;;18.00;65.40;;;;;;5108815;28;19922;-49
2022/03/27 11:35:30;;;;;;;;;;;18.00;65.00;;;;;;5094893;28;19912;-48
2022/03/27 11:38:18;;;;;;;;;;;17.80;64.40;;;;;;5096492;28;20396;-48
2022/03/27 11:40:44;;;;;;;;;;;17.90;65.20;;;;;;5083301;28;20015;-47
2022/03/27 11:43:26;;;;;;;;;;;17.40;66.20;;;;;;5112154;28;19911;-49
2022/03/27 11:45:54;;;;;;;;;;;17.20;66.50;;;;;;5111395;28;19916;-50
2022/03/27 11:48:19;;;;;;;;;;;17.40;66.50;;;;;;5098790;28;19919;-48
2022/03/27 11:50:45;;;;;;;;;;;17.50;63.90;;;;;;5116952;28;19926;-49
2022/03/27 11:53:10;;;;;;;;;;;17.50;64.20;;;;;;5098862;28;19912;-49
2022/03/27 11:55:37;;;;;;;;;;;17.60;64.10;;;;;;5094860;28;20234;-49
2022/03/27 11:58:03;;;;;;;;;;;17.60;64.10;;;;;;5107204;28;19913;-46
2022/03/27 12:00:37;;;;;;;;;;;17.90;63.80;;;;;;5096505;28;19926;-49
2022/03/27 12:03:03;;;;;;;;;;;18.10;63.10;;;;;;5102389;28;19912;-45
2022/03/27 12:05:36;;;;;;;;;;;18.30;62.70;;;;;;5106275;28;19947;-47
2022/03/27 12:08:02;;;;;;;;;;;18.20;62.50;;;;;;5099702;28;19957;-47
2022/03/27 12:10:28;;;;;;;;;;;17.80;62.30;;;;;;5128517;27;20018;-49
2022/03/27 12:12:55;;;;;;;;;;;17.70;62.50;;;;;;5097250;28;20343;-48
2022/03/27 12:15:21;;;;;;;;;;;17.50;63.00;;;;;;5105040;28;20010;-52
2022/03/27 12:17:46;;;;;;;;;;;17.50;62.60;;;;;;5095469;28;20011;-48
2022/03/27 12:20:12;;;;;;;;;;;17.50;62.80;;;;;;5095735;28;19925;-51
2022/03/27 12:22:39;;;;;;;;;;;17.50;62.40;;;;;;5095643;28;19916;-49
2022/03/27 12:25:30;;;;;;;;;;;17.60;62.50;;;;;;5094380;28;19947;-51
2022/03/27 12:30:47;;;;;;;;;;;17.90;62.30;;;;;;5095513;28;20297;-46
2022/03/27 12:33:13;;;;;;;;;;;17.60;61.60;;;;;;5095620;28;19912;-48
2022/03/27 12:35:39;;;;;;;;;;;17.90;61.80;;;;;;5095231;28;19908;-47
2022/03/27 12:38:04;;;;;;;;;;;18.40;61.30;;;;;;5095072;28;20007;-47
2022/03/27 12:40:40;;;;;;;;;;;18.30;60.30;;;;;;5095605;28;19923;-47
2022/03/27 12:43:12;;;;;;;;;;;17.90;61.00;;;;;;5095564;28;20350;-46
2022/03/27 12:45:41;;;;;;;;;;;18.10;60.50;;;;;;5095106;28;19922;-46
2022/03/27 12:48:17;;;;;;;;;;;18.20;60.50;;;;;;5095116;28;19908;-45
2022/03/27 12:50:44;;;;;;;;;;;18.00;62.90;;;;;;5093682;28;20353;-48
2022/03/27 12:53:12;;;;;;;;;;;18.10;60.30;;;;;;5096249;28;19912;-47
2022/03/27 12:55:40;;;;;;;;;;;18.10;60.20;;;;;;5104071;28;19912;-49
2022/03/27 12:58:06;;;;;;;;;;;18.20;59.90;;;;;;5108572;28;20469;-44
2022/03/27 13:00:32;;;;;;;;;;;18.40;60.20;;;;;;5100391;28;20003;-47
2022/03/27 13:03:27;;;;;;;;;;;18.70;58.90;;;;;;5115083;28;19908;-49
2022/03/27 13:05:56;;;;;;;;;;;19.00;59.00;;;;;;5107380;28;20006;-53
2022/03/27 13:08:26;;;;;;;;;;;18.90;58.10;;;;;;5102493;28;20003;-48
2022/03/27 13:10:55;;;;;;;;;;;19.00;57.90;;;;;;5094919;28;19951;-49
2022/03/27 13:13:30;;;;;;;;;;;18.70;57.90;;;;;;5094971;28;19952;-46
2022/03/27 13:15:57;;;;;;;;;;;18.40;58.10;;;;;;5098244;28;19916;-48
2022/03/27 13:18:32;;;;;;;;;;;18.50;57.70;;;;;;5103393;28;20366;-45
2022/03/27 13:21:11;;;;;;;;;;;18.80;58.30;;;;;;5115373;28;20338;-47
2022/03/27 13:23:37;;;;;;;;;;;18.60;58.30;;;;;;5096572;28;20297;-45
2022/03/27 13:26:02;;;;;;;;;;;18.60;58.70;;;;;;5095132;28;19975;-46
2022/03/27 13:28:28;;;;;;;;;;;18.70;57.90;;;;;;5100899;28;19916;-46
2022/03/27 13:30:53;;;;;;;;;;;18.30;57.00;;;;;;5098183;28;19919;-50
2022/03/27 13:33:19;;;;;;;;;;;18.30;56.90;;;;;;5102368;28;19911;-49
2022/03/27 13:35:48;;;;;;;;;;;18.60;56.90;;;;;;5098889;28;19969;-46
2022/03/27 13:38:14;;;;;;;;;;;18.70;57.20;;;;;;5094650;28;19916;-47
2022/03/27 13:43:24;;;;;;;;;;;18.30;57.10;;;;;;5094129;28;19923;-49
2022/03/27 13:45:50;;;;;;;;;;;18.20;57.00;;;;;;5094573;28;19908;-48
2022/03/27 13:48:15;;;;;;;;;;;18.20;56.90;;;;;;5094240;28;19995;-47
2022/03/27 13:50:41;;;;;;;;;;;18.30;57.00;;;;;;5093954;28;19908;-45
2022/03/27 13:53:07;;;;;;;;;;;18.30;56.90;;;;;;5093801;28;19912;-49
2022/03/27 13:55:32;;;;;;;;;;;18.40;56.90;;;;;;5094254;28;19908;-47
2022/03/27 13:58:00;;;;;;;;;;;18.50;56.10;;;;;;5094256;28;19917;-45
2022/03/27 14:00:25;;;;;;;;;;;18.60;56.10;;;;;;5094143;28;20051;-49
2022/03/27 14:02:51;;;;;;;;;;;18.50;56.00;;;;;;5093804;28;19995;-50
2022/03/27 14:05:16;;;;;;;;;;;18.50;56.20;;;;;;5093060;28;19908;-50
2022/03/27 14:07:42;;;;;;;;;;;18.50;56.60;;;;;;5094007;28;19909;-48
2022/03/27 14:10:08;;;;;;;;;;;18.80;55.90;;;;;;5094299;28;19912;-49
2022/03/27 14:12:33;;;;;;;;;;;18.60;55.40;;;;;;5094084;28;19908;-47
2022/03/27 14:14:59;;;;;;;;;;;18.80;55.50;;;;;;5093724;28;19912;-46
2022/03/27 14:17:24;;;;;;;;;;;19.10;55.20;;;;;;5093472;28;19912;-48
2022/03/27 14:19:50;;;;;;;;;;;18.80;55.10;;;;;;5093953;28;20355;-45
2022/03/27 14:22:15;;;;;;;;;;;18.60;55.60;;;;;;5093952;28;19914;-47
2022/03/27 14:24:41;;;;;;;;;;;18.40;56.10;;;;;;5094001;28;20269;-49
2022/03/27 14:27:06;;;;;;;;;;;18.50;55.10;;;;;;5093603;28;20452;-46
2022/03/27 14:29:33;;;;;;;;;;;18.60;55.00;;;;;;5092516;28;19908;-46
2022/03/27 14:31:58;;;;;;;;;;;18.60;54.70;;;;;;5093779;28;19928;-46
2022/03/27 14:34:24;;;;;;;;;;;18.50;56.00;;;;;;5093517;28;19912;-45
2022/03/27 14:36:50;;;;;;;;;;;18.10;55.90;;;;;;5093656;28;20412;-49
2022/03/27 14:39:16;;;;;;;;;;;17.90;56.30;;;;;;5093822;28;19939;-45